sensor_id;sensor_type;location;lat;lon;timestamp;pressure;altitude;pressure_sealevel;temperature;humidity
76337;BME280;65157;50.082;18.178;2023-12-29T00:02:13;99247.05;;;6.85;76.96
76337;BME280;65157;50.082;18.178;2023-12-29T00:04:40;99234.26;;;6.85;77.15
76337;BME280;65157;50.082;18.178;2023-12-29T00:07:07;99232.48;;;6.86;77.21
76337;BME280;65157;50.082;18.178;2023-12-29T00:09:33;99229.36;;;6.85;77.37
76337;BME280;65157;50.082;18.178;2023-12-29T00:12:00;99233.41;;;6.84;77.19
76337;BME280;65157;50.082;18.178;2023-12-29T00:14:26;99240.80;;;6.82;77.24
76337;BME280;65157;50.082;18.178;2023-12-29T00:16:53;99242.92;;;6.82;77.35
76337;BME280;65157;50.082;18.178;2023-12-29T00:19:19;99245.92;;;6.82;77.52
76337;BME280;65157;50.082;18.178;2023-12-29T00:21:46;99248.02;;;6.82;77.37
76337;BME280;65157;50.082;18.178;2023-12-29T00:24:12;99243.25;;;6.83;77.41
76337;BME280;65157;50.082;18.178;2023-12-29T00:26:39;99238.69;;;6.84;77.32
76337;BME280;65157;50.082;18.178;2023-12-29T00:29:05;99233.91;;;6.85;77.29
76337;BME280;65157;50.082;18.178;2023-12-29T00:31:32;99227.40;;;6.86;77.36
76337;BME280;65157;50.082;18.178;2023-12-29T00:33:59;99215.87;;;6.84;77.35
76337;BME280;65157;50.082;18.178;2023-12-29T00:36:26;99209.80;;;6.81;77.60
76337;BME280;65157;50.082;18.178;2023-12-29T00:38:52;99202.19;;;6.77;77.66
76337;BME280;65157;50.082;18.178;2023-12-29T00:41:19;99198.63;;;6.73;77.61
76337;BME280;65157;50.082;18.178;2023-12-29T00:43:46;99199.41;;;6.69;78.36
76337;BME280;65157;50.082;18.178;2023-12-29T00:46:16;99199.38;;;6.65;78.54
76337;BME280;65157;50.082;18.178;2023-12-29T00:48:43;99212.23;;;6.63;78.78
76337;BME280;65157;50.082;18.178;2023-12-29T00:51:09;99213.02;;;6.60;78.67
76337;BME280;65157;50.082;18.178;2023-12-29T00:53:36;99217.96;;;6.58;78.77
76337;BME280;65157;50.082;18.178;2023-12-29T00:56:03;99223.93;;;6.58;78.83
76337;BME280;65157;50.082;18.178;2023-12-29T00:58:35;99229.16;;;6.60;78.83
76337;BME280;65157;50.082;18.178;2023-12-29T01:01:02;99225.80;;;6.60;78.76
76337;BME280;65157;50.082;18.178;2023-12-29T01:03:28;99229.13;;;6.61;78.78
76337;BME280;65157;50.082;18.178;2023-12-29T01:05:55;99225.60;;;6.62;78.82
76337;BME280;65157;50.082;18.178;2023-12-29T01:08:22;99222.23;;;6.63;79.10
76337;BME280;65157;50.082;18.178;2023-12-29T01:10:48;99217.13;;;6.63;79.00
76337;BME280;65157;50.082;18.178;2023-12-29T01:13:15;99209.11;;;6.62;79.12
76337;BME280;65157;50.082;18.178;2023-12-29T01:15:41;99203.39;;;6.59;79.16
76337;BME280;65157;50.082;18.178;2023-12-29T01:18:08;99197.39;;;6.55;79.21
76337;BME280;65157;50.082;18.178;2023-12-29T01:20:34;99188.20;;;6.50;79.31
76337;BME280;65157;50.082;18.178;2023-12-29T01:23:01;99189.33;;;6.48;79.27
76337;BME280;65157;50.082;18.178;2023-12-29T01:25:28;99189.41;;;6.44;79.66
76337;BME280;65157;50.082;18.178;2023-12-29T01:27:54;99188.16;;;6.39;79.95
76337;BME280;65157;50.082;18.178;2023-12-29T01:30:21;99190.88;;;6.35;79.66
76337;BME280;65157;50.082;18.178;2023-12-29T01:32:47;99184.98;;;6.27;80.07
76337;BME280;65157;50.082;18.178;2023-12-29T01:35:14;99196.38;;;6.26;79.76
76337;BME280;65157;50.082;18.178;2023-12-29T01:37:42;99197.17;;;6.22;79.66
76337;BME280;65157;50.082;18.178;2023-12-29T01:40:09;99197.09;;;6.19;79.61
76337;BME280;65157;50.082;18.178;2023-12-29T01:42:35;99196.27;;;6.17;79.58
76337;BME280;65157;50.082;18.178;2023-12-29T01:45:02;99192.84;;;6.14;80.00
76337;BME280;65157;50.082;18.178;2023-12-29T01:47:30;99189.98;;;6.09;79.51
76337;BME280;65157;50.082;18.178;2023-12-29T01:49:56;99196.65;;;6.09;79.34
76337;BME280;65157;50.082;18.178;2023-12-29T01:52:23;99196.17;;;6.06;79.37
76337;BME280;65157;50.082;18.178;2023-12-29T01:54:50;99199.16;;;6.06;79.22
76337;BME280;65157;50.082;18.178;2023-12-29T01:57:17;99190.77;;;6.06;79.08
76337;BME280;65157;50.082;18.178;2023-12-29T01:59:43;99188.20;;;6.03;78.99
76337;BME280;65157;50.082;18.178;2023-12-29T02:02:10;99189.11;;;6.02;78.87
76337;BME280;65157;50.082;18.178;2023-12-29T02:04:37;99191.81;;;5.99;78.82
76337;BME280;65157;50.082;18.178;2023-12-29T02:07:04;99192.23;;;5.96;78.65
76337;BME280;65157;50.082;18.178;2023-12-29T02:09:31;99195.77;;;5.95;78.44
76337;BME280;65157;50.082;18.178;2023-12-29T02:11:58;99199.55;;;5.98;78.30
76337;BME280;65157;50.082;18.178;2023-12-29T02:14:25;99195.13;;;6.00;77.98
76337;BME280;65157;50.082;18.178;2023-12-29T02:17:10;99193.66;;;6.02;77.75
76337;BME280;65157;50.082;18.178;2023-12-29T02:19:43;99188.91;;;6.03;77.52
76337;BME280;65157;50.082;18.178;2023-12-29T02:22:11;99183.15;;;6.02;77.57
76337;BME280;65157;50.082;18.178;2023-12-29T02:24:39;99181.44;;;6.00;77.52
76337;BME280;65157;50.082;18.178;2023-12-29T02:30:10;99158.90;;;5.92;77.36
76337;BME280;65157;50.082;18.178;2023-12-29T02:32:42;99156.36;;;5.88;77.24
76337;BME280;65157;50.082;18.178;2023-12-29T02:35:10;99152.38;;;5.86;77.12
76337;BME280;65157;50.082;18.178;2023-12-29T02:37:41;99142.26;;;5.83;77.11
76337;BME280;65157;50.082;18.178;2023-12-29T02:40:08;99136.20;;;5.80;77.12
76337;BME280;65157;50.082;18.178;2023-12-29T02:42:35;99132.46;;;5.76;76.98
76337;BME280;65157;50.082;18.178;2023-12-29T02:45:02;99139.10;;;5.77;76.96
76337;BME280;65157;50.082;18.178;2023-12-29T02:47:30;99137.34;;;5.77;76.85
76337;BME280;65157;50.082;18.178;2023-12-29T02:49:57;99142.36;;;5.79;76.74
76337;BME280;65157;50.082;18.178;2023-12-29T02:52:23;99138.48;;;5.80;76.67
76337;BME280;65157;50.082;18.178;2023-12-29T02:54:50;99133.01;;;5.81;76.49
76337;BME280;65157;50.082;18.178;2023-12-29T02:57:17;99127.23;;;5.81;76.38
76337;BME280;65157;50.082;18.178;2023-12-29T02:59:44;99126.11;;;5.85;76.43
76337;BME280;65157;50.082;18.178;2023-12-29T03:02:11;99127.33;;;5.85;76.36
76337;BME280;65157;50.082;18.178;2023-12-29T03:04:37;99125.77;;;5.84;76.26
76337;BME280;65157;50.082;18.178;2023-12-29T03:07:04;99130.49;;;5.85;76.17
76337;BME280;65157;50.082;18.178;2023-12-29T03:09:31;99127.16;;;5.86;75.94
76337;BME280;65157;50.082;18.178;2023-12-29T03:11:57;99127.64;;;5.88;75.88
76337;BME280;65157;50.082;18.178;2023-12-29T03:14:24;99132.67;;;5.89;75.83
76337;BME280;65157;50.082;18.178;2023-12-29T03:16:51;99127.04;;;5.90;75.70
76337;BME280;65157;50.082;18.178;2023-12-29T03:19:17;99125.98;;;5.91;75.72
76337;BME280;65157;50.082;18.178;2023-12-29T03:21:44;99120.20;;;5.91;75.61
76337;BME280;65157;50.082;18.178;2023-12-29T03:24:10;99119.72;;;5.88;75.66
76337;BME280;65157;50.082;18.178;2023-12-29T03:26:37;99118.23;;;5.86;75.76
76337;BME280;65157;50.082;18.178;2023-12-29T03:29:04;99111.98;;;5.82;75.78
76337;BME280;65157;50.082;18.178;2023-12-29T03:31:30;99111.71;;;5.79;75.82
76337;BME280;65157;50.082;18.178;2023-12-29T03:33:57;99112.79;;;5.78;75.57
76337;BME280;65157;50.082;18.178;2023-12-29T03:36:24;99111.55;;;5.78;75.71
76337;BME280;65157;50.082;18.178;2023-12-29T03:38:50;99107.40;;;5.77;75.72
76337;BME280;65157;50.082;18.178;2023-12-29T03:41:17;99108.46;;;5.76;75.73
76337;BME280;65157;50.082;18.178;2023-12-29T03:43:44;99114.61;;;5.75;75.55
76337;BME280;65157;50.082;18.178;2023-12-29T03:46:20;99108.52;;;5.74;75.41
76337;BME280;65157;50.082;18.178;2023-12-29T03:48:48;99103.10;;;5.73;75.42
76337;BME280;65157;50.082;18.178;2023-12-29T03:51:15;99105.39;;;5.73;75.31
76337;BME280;65157;50.082;18.178;2023-12-29T03:53:42;99102.64;;;5.71;75.33
76337;BME280;65157;50.082;18.178;2023-12-29T03:56:12;99099.83;;;5.71;75.36
76337;BME280;65157;50.082;18.178;2023-12-29T03:58:39;99097.39;;;5.70;75.36
76337;BME280;65157;50.082;18.178;2023-12-29T04:01:10;99094.27;;;5.69;75.36
76337;BME280;65157;50.082;18.178;2023-12-29T04:03:37;99104.11;;;5.67;75.21
76337;BME280;65157;50.082;18.178;2023-12-29T04:06:04;99099.77;;;5.66;75.15
76337;BME280;65157;50.082;18.178;2023-12-29T04:08:31;99086.75;;;5.62;75.12
76337;BME280;65157;50.082;18.178;2023-12-29T04:10:57;99081.95;;;5.58;75.15
76337;BME280;65157;50.082;18.178;2023-12-29T04:13:24;99080.13;;;5.54;75.13
76337;BME280;65157;50.082;18.178;2023-12-29T04:15:51;99078.11;;;5.51;75.21
76337;BME280;65157;50.082;18.178;2023-12-29T04:18:20;99082.56;;;5.47;75.25
76337;BME280;65157;50.082;18.178;2023-12-29T04:20:47;99084.35;;;5.46;75.25
76337;BME280;65157;50.082;18.178;2023-12-29T04:23:14;99087.73;;;5.44;75.30
76337;BME280;65157;50.082;18.178;2023-12-29T04:25:41;99087.42;;;5.42;75.30
76337;BME280;65157;50.082;18.178;2023-12-29T04:28:08;99075.05;;;5.39;75.28
76337;BME280;65157;50.082;18.178;2023-12-29T04:30:35;99071.60;;;5.37;75.30
76337;BME280;65157;50.082;18.178;2023-12-29T04:33:01;99064.67;;;5.34;75.46
76337;BME280;65157;50.082;18.178;2023-12-29T04:35:28;99067.52;;;5.32;75.61
76337;BME280;65157;50.082;18.178;2023-12-29T04:37:55;99068.60;;;5.31;75.77
76337;BME280;65157;50.082;18.178;2023-12-29T04:40:21;99072.61;;;5.32;75.90
76337;BME280;65157;50.082;18.178;2023-12-29T04:42:48;99083.42;;;5.34;76.12
76337;BME280;65157;50.082;18.178;2023-12-29T04:45:15;99087.38;;;5.37;76.18
76337;BME280;65157;50.082;18.178;2023-12-29T04:47:41;99086.27;;;5.39;76.32
76337;BME280;65157;50.082;18.178;2023-12-29T04:50:08;99086.17;;;5.43;76.68
76337;BME280;65157;50.082;18.178;2023-12-29T04:52:34;99085.19;;;5.47;76.78
76337;BME280;65157;50.082;18.178;2023-12-29T04:55:01;99082.27;;;5.52;76.75
76337;BME280;65157;50.082;18.178;2023-12-29T04:57:28;99077.13;;;5.54;76.60
76337;BME280;65157;50.082;18.178;2023-12-29T04:59:54;99079.48;;;5.58;76.72
76337;BME280;65157;50.082;18.178;2023-12-29T05:02:21;99090.40;;;5.63;76.75
76337;BME280;65157;50.082;18.178;2023-12-29T05:04:48;99092.25;;;5.65;76.71
76337;BME280;65157;50.082;18.178;2023-12-29T05:07:14;99093.04;;;5.69;76.73
76337;BME280;65157;50.082;18.178;2023-12-29T05:09:41;99095.57;;;5.73;76.73
76337;BME280;65157;50.082;18.178;2023-12-29T05:12:08;99094.58;;;5.78;76.67
76337;BME280;65157;50.082;18.178;2023-12-29T05:14:34;99097.76;;;5.84;76.46
76337;BME280;65157;50.082;18.178;2023-12-29T05:17:01;99099.47;;;5.93;76.17
76337;BME280;65157;50.082;18.178;2023-12-29T05:19:28;99097.30;;;6.02;75.94
76337;BME280;65157;50.082;18.178;2023-12-29T05:21:55;99101.01;;;6.08;75.69
76337;BME280;65157;50.082;18.178;2023-12-29T05:24:21;99098.53;;;6.15;75.53
76337;BME280;65157;50.082;18.178;2023-12-29T05:26:48;99095.90;;;6.22;75.35
76337;BME280;65157;50.082;18.178;2023-12-29T05:29:14;99092.91;;;6.29;74.86
76337;BME280;65157;50.082;18.178;2023-12-29T05:31:41;99079.06;;;6.35;74.91
76337;BME280;65157;50.082;18.178;2023-12-29T05:34:08;99065.67;;;6.38;74.58
76337;BME280;65157;50.082;18.178;2023-12-29T05:36:35;99061.02;;;6.41;74.51
76337;BME280;65157;50.082;18.178;2023-12-29T05:39:02;99052.67;;;6.45;74.23
76337;BME280;65157;50.082;18.178;2023-12-29T05:41:29;99040.71;;;6.46;74.02
76337;BME280;65157;50.082;18.178;2023-12-29T05:43:56;99033.66;;;6.47;73.88
76337;BME280;65157;50.082;18.178;2023-12-29T05:46:22;99044.11;;;6.49;73.75
76337;BME280;65157;50.082;18.178;2023-12-29T05:48:49;99050.90;;;6.51;73.74
76337;BME280;65157;50.082;18.178;2023-12-29T05:51:15;99052.46;;;6.52;73.80
76337;BME280;65157;50.082;18.178;2023-12-29T05:53:42;99057.55;;;6.52;73.91
76337;BME280;65157;50.082;18.178;2023-12-29T05:56:12;99059.67;;;6.51;73.82
76337;BME280;65157;50.082;18.178;2023-12-29T05:58:42;99052.65;;;6.51;73.94
76337;BME280;65157;50.082;18.178;2023-12-29T06:01:09;99056.71;;;6.50;74.02
76337;BME280;65157;50.082;18.178;2023-12-29T06:03:36;99055.36;;;6.48;74.04
76337;BME280;65157;50.082;18.178;2023-12-29T06:06:03;99051.30;;;6.49;74.10
76337;BME280;65157;50.082;18.178;2023-12-29T06:08:29;99049.98;;;6.52;74.09
76337;BME280;65157;50.082;18.178;2023-12-29T06:10:56;99052.71;;;6.55;74.19
76337;BME280;65157;50.082;18.178;2023-12-29T06:13:23;99049.48;;;6.57;74.09
76337;BME280;65157;50.082;18.178;2023-12-29T06:15:49;99051.73;;;6.58;74.01
76337;BME280;65157;50.082;18.178;2023-12-29T06:18:16;99058.69;;;6.60;74.13
76337;BME280;65157;50.082;18.178;2023-12-29T06:20:43;99059.11;;;6.58;74.15
76337;BME280;65157;50.082;18.178;2023-12-29T06:23:10;99056.44;;;6.59;74.07
76337;BME280;65157;50.082;18.178;2023-12-29T06:25:36;99056.77;;;6.60;73.89
76337;BME280;65157;50.082;18.178;2023-12-29T06:28:03;99053.73;;;6.62;73.90
76337;BME280;65157;50.082;18.178;2023-12-29T06:30:30;99046.07;;;6.60;73.98
76337;BME280;65157;50.082;18.178;2023-12-29T06:32:56;99041.18;;;6.59;73.99
76337;BME280;65157;50.082;18.178;2023-12-29T06:35:23;99045.12;;;6.57;74.12
76337;BME280;65157;50.082;18.178;2023-12-29T06:37:49;99048.27;;;6.57;74.11
76337;BME280;65157;50.082;18.178;2023-12-29T06:40:16;99051.83;;;6.55;74.19
76337;BME280;65157;50.082;18.178;2023-12-29T06:42:44;99052.38;;;6.55;74.13
76337;BME280;65157;50.082;18.178;2023-12-29T06:45:11;99042.91;;;6.54;74.20
76337;BME280;65157;50.082;18.178;2023-12-29T06:47:38;99038.34;;;6.55;74.19
76337;BME280;65157;50.082;18.178;2023-12-29T06:50:05;99028.49;;;6.56;74.10
76337;BME280;65157;50.082;18.178;2023-12-29T06:52:32;99021.91;;;6.59;74.04
76337;BME280;65157;50.082;18.178;2023-12-29T06:54:59;99018.38;;;6.60;74.03
76337;BME280;65157;50.082;18.178;2023-12-29T06:57:25;99014.10;;;6.62;73.93
76337;BME280;65157;50.082;18.178;2023-12-29T06:59:52;99006.46;;;6.65;73.87
76337;BME280;65157;50.082;18.178;2023-12-29T07:02:19;99010.27;;;6.67;74.03
76337;BME280;65157;50.082;18.178;2023-12-29T07:04:46;99018.08;;;6.69;74.00
76337;BME280;65157;50.082;18.178;2023-12-29T07:07:13;99033.08;;;6.72;73.92
76337;BME280;65157;50.082;18.178;2023-12-29T07:09:39;99032.13;;;6.75;73.87
76337;BME280;65157;50.082;18.178;2023-12-29T07:12:06;99034.17;;;6.77;73.76
76337;BME280;65157;50.082;18.178;2023-12-29T07:14:33;99033.62;;;6.78;73.88
76337;BME280;65157;50.082;18.178;2023-12-29T07:17:03;99030.40;;;6.79;73.67
76337;BME280;65157;50.082;18.178;2023-12-29T07:19:30;99027.92;;;6.80;73.86
76337;BME280;65157;50.082;18.178;2023-12-29T07:21:56;99025.81;;;6.80;73.88
76337;BME280;65157;50.082;18.178;2023-12-29T07:24:24;99025.45;;;6.81;73.85
76337;BME280;65157;50.082;18.178;2023-12-29T07:26:51;99027.19;;;6.81;73.89
76337;BME280;65157;50.082;18.178;2023-12-29T07:29:18;99037.30;;;6.83;74.05
76337;BME280;65157;50.082;18.178;2023-12-29T07:31:44;99045.34;;;6.85;73.96
76337;BME280;65157;50.082;18.178;2023-12-29T07:34:11;99043.73;;;6.85;74.13
76337;BME280;65157;50.082;18.178;2023-12-29T07:36:38;99043.16;;;6.87;74.14
76337;BME280;65157;50.082;18.178;2023-12-29T07:39:05;99041.66;;;6.90;74.08
76337;BME280;65157;50.082;18.178;2023-12-29T07:41:32;99046.02;;;6.97;74.17
76337;BME280;65157;50.082;18.178;2023-12-29T07:43:58;99046.40;;;7.01;74.09
76337;BME280;65157;50.082;18.178;2023-12-29T07:46:26;99048.87;;;7.06;74.11
76337;BME280;65157;50.082;18.178;2023-12-29T07:48:53;99047.30;;;7.12;73.91
76337;BME280;65157;50.082;18.178;2023-12-29T07:51:20;99045.23;;;7.16;73.78
76337;BME280;65157;50.082;18.178;2023-12-29T07:53:47;99044.94;;;7.20;73.74
76337;BME280;65157;50.082;18.178;2023-12-29T07:56:14;99052.02;;;7.23;73.81
76337;BME280;65157;50.082;18.178;2023-12-29T07:58:41;99051.84;;;7.29;73.52
76337;BME280;65157;50.082;18.178;2023-12-29T08:01:09;99055.19;;;7.33;73.40
76337;BME280;65157;50.082;18.178;2023-12-29T08:03:36;99055.07;;;7.37;73.30
76337;BME280;65157;50.082;18.178;2023-12-29T08:06:03;99046.01;;;7.41;73.17
76337;BME280;65157;50.082;18.178;2023-12-29T08:08:29;99046.66;;;7.42;73.04
76337;BME280;65157;50.082;18.178;2023-12-29T08:10:56;99049.04;;;7.45;73.08
76337;BME280;65157;50.082;18.178;2023-12-29T08:13:23;99046.34;;;7.47;73.16
76337;BME280;65157;50.082;18.178;2023-12-29T08:15:51;99052.20;;;7.50;73.27
76337;BME280;65157;50.082;18.178;2023-12-29T08:18:18;99053.66;;;7.54;73.12
76337;BME280;65157;50.082;18.178;2023-12-29T08:20:44;99051.05;;;7.58;73.17
76337;BME280;65157;50.082;18.178;2023-12-29T08:23:11;99052.98;;;7.63;73.12
76337;BME280;65157;50.082;18.178;2023-12-29T08:25:38;99051.08;;;7.68;72.94
76337;BME280;65157;50.082;18.178;2023-12-29T08:28:04;99048.71;;;7.70;73.04
76337;BME280;65157;50.082;18.178;2023-12-29T08:30:34;99047.71;;;7.74;72.83
76337;BME280;65157;50.082;18.178;2023-12-29T08:33:01;99050.38;;;7.78;72.93
76337;BME280;65157;50.082;18.178;2023-12-29T08:35:29;99050.60;;;7.81;72.80
76337;BME280;65157;50.082;18.178;2023-12-29T08:37:57;99050.46;;;7.86;72.65
76337;BME280;65157;50.082;18.178;2023-12-29T08:40:23;99049.80;;;7.89;72.40
76337;BME280;65157;50.082;18.178;2023-12-29T08:42:50;99048.05;;;7.94;72.33
76337;BME280;65157;50.082;18.178;2023-12-29T08:45:17;99047.75;;;7.98;72.20
76337;BME280;65157;50.082;18.178;2023-12-29T08:47:46;99053.89;;;8.03;72.14
76337;BME280;65157;50.082;18.178;2023-12-29T08:50:13;99055.18;;;8.07;72.12
76337;BME280;65157;50.082;18.178;2023-12-29T08:52:39;99058.70;;;8.11;72.04
76337;BME280;65157;50.082;18.178;2023-12-29T08:55:06;99061.19;;;8.15;71.84
76337;BME280;65157;50.082;18.178;2023-12-29T08:57:34;99062.52;;;8.18;71.83
76337;BME280;65157;50.082;18.178;2023-12-29T09:00:01;99066.34;;;8.24;71.77
76337;BME280;65157;50.082;18.178;2023-12-29T09:02:28;99075.37;;;8.28;71.70
76337;BME280;65157;50.082;18.178;2023-12-29T09:04:54;99082.46;;;8.31;71.67
76337;BME280;65157;50.082;18.178;2023-12-29T09:07:21;99081.71;;;8.32;71.58
76337;BME280;65157;50.082;18.178;2023-12-29T09:09:47;99092.08;;;8.38;71.50
76337;BME280;65157;50.082;18.178;2023-12-29T09:12:14;99078.63;;;8.35;71.74
76337;BME280;65157;50.082;18.178;2023-12-29T09:14:40;99090.14;;;8.42;71.67
76337;BME280;65157;50.082;18.178;2023-12-29T09:17:07;99087.08;;;8.44;71.86
76337;BME280;65157;50.082;18.178;2023-12-29T09:19:34;99081.55;;;8.46;71.89
76337;BME280;65157;50.082;18.178;2023-12-29T09:22:00;99076.73;;;8.48;71.55
76337;BME280;65157;50.082;18.178;2023-12-29T09:24:27;99080.82;;;8.52;71.41
76337;BME280;65157;50.082;18.178;2023-12-29T09:26:54;99077.73;;;8.55;71.46
76337;BME280;65157;50.082;18.178;2023-12-29T09:29:21;99074.64;;;8.57;71.37
76337;BME280;65157;50.082;18.178;2023-12-29T09:31:47;99065.23;;;8.60;71.42
76337;BME280;65157;50.082;18.178;2023-12-29T09:34:14;99063.98;;;8.61;71.10
76337;BME280;65157;50.082;18.178;2023-12-29T09:36:41;99063.23;;;8.62;71.53
76337;BME280;65157;50.082;18.178;2023-12-29T09:39:07;99053.13;;;8.64;71.49
76337;BME280;65157;50.082;18.178;2023-12-29T09:41:37;99056.39;;;8.65;71.33
76337;BME280;65157;50.082;18.178;2023-12-29T09:44:13;99048.67;;;8.65;71.33
76337;BME280;65157;50.082;18.178;2023-12-29T09:46:41;99043.51;;;8.67;71.28
76337;BME280;65157;50.082;18.178;2023-12-29T09:49:09;99039.23;;;8.68;71.37
76337;BME280;65157;50.082;18.178;2023-12-29T09:51:40;99036.91;;;8.69;71.52
76337;BME280;65157;50.082;18.178;2023-12-29T09:54:08;99018.36;;;8.71;71.45
76337;BME280;65157;50.082;18.178;2023-12-29T09:56:35;99010.73;;;8.73;71.44
76337;BME280;65157;50.082;18.178;2023-12-29T09:59:03;99007.80;;;8.76;71.22
76337;BME280;65157;50.082;18.178;2023-12-29T10:01:30;99008.34;;;8.79;71.15
76337;BME280;65157;50.082;18.178;2023-12-29T10:03:57;99005.20;;;8.83;71.29
76337;BME280;65157;50.082;18.178;2023-12-29T10:06:25;99010.88;;;8.87;71.25
76337;BME280;65157;50.082;18.178;2023-12-29T10:08:53;99011.44;;;8.90;71.11
76337;BME280;65157;50.082;18.178;2023-12-29T10:11:21;99007.41;;;8.94;70.97
76337;BME280;65157;50.082;18.178;2023-12-29T10:13:49;99012.17;;;8.98;70.78
76337;BME280;65157;50.082;18.178;2023-12-29T10:16:41;99022.77;;;9.02;70.36
76337;BME280;65157;50.082;18.178;2023-12-29T10:21:53;99029.17;;;9.14;70.43
76337;BME280;65157;50.082;18.178;2023-12-29T10:24:22;99028.42;;;9.19;70.34
76337;BME280;65157;50.082;18.178;2023-12-29T10:26:50;99022.94;;;9.24;69.35
76337;BME280;65157;50.082;18.178;2023-12-29T10:29:36;99020.20;;;9.31;69.76
76337;BME280;65157;50.082;18.178;2023-12-29T10:32:23;99009.58;;;9.36;69.32
76337;BME280;65157;50.082;18.178;2023-12-29T10:34:50;99005.70;;;9.41;69.43
76337;BME280;65157;50.082;18.178;2023-12-29T10:37:22;99004.85;;;9.44;69.39
76337;BME280;65157;50.082;18.178;2023-12-29T10:39:55;99014.76;;;9.51;69.13
76337;BME280;65157;50.082;18.178;2023-12-29T10:42:22;99006.78;;;9.57;68.94
76337;BME280;65157;50.082;18.178;2023-12-29T10:45:04;99000.23;;;9.61;68.50
76337;BME280;65157;50.082;18.178;2023-12-29T10:47:31;99000.48;;;9.69;68.27
76337;BME280;65157;50.082;18.178;2023-12-29T10:49:59;99003.54;;;9.75;68.82
76337;BME280;65157;50.082;18.178;2023-12-29T10:52:25;99004.63;;;9.83;68.24
76337;BME280;65157;50.082;18.178;2023-12-29T10:55:05;99016.41;;;9.91;67.58
76337;BME280;65157;50.082;18.178;2023-12-29T10:57:32;99006.33;;;10.00;67.32
76337;BME280;65157;50.082;18.178;2023-12-29T11:00:00;98999.35;;;10.06;67.58
76337;BME280;65157;50.082;18.178;2023-12-29T11:02:28;98991.95;;;10.10;67.75
76337;BME280;65157;50.082;18.178;2023-12-29T11:05:08;98996.61;;;10.13;67.37
76337;BME280;65157;50.082;18.178;2023-12-29T11:07:39;99006.18;;;10.16;66.98
76337;BME280;65157;50.082;18.178;2023-12-29T11:10:08;99008.71;;;10.18;66.59
76337;BME280;65157;50.082;18.178;2023-12-29T11:12:36;99006.76;;;10.19;66.67
76337;BME280;65157;50.082;18.178;2023-12-29T11:15:06;99002.12;;;10.20;66.44
76337;BME280;65157;50.082;18.178;2023-12-29T11:17:35;98999.87;;;10.19;66.57
76337;BME280;65157;50.082;18.178;2023-12-29T11:20:03;98989.87;;;10.18;66.32
76337;BME280;65157;50.082;18.178;2023-12-29T11:22:31;98984.74;;;10.18;66.65
76337;BME280;65157;50.082;18.178;2023-12-29T11:25:00;98981.55;;;10.18;66.68
76337;BME280;65157;50.082;18.178;2023-12-29T11:27:28;98986.68;;;10.18;66.53
76337;BME280;65157;50.082;18.178;2023-12-29T11:29:59;98989.26;;;10.15;66.22
76337;BME280;65157;50.082;18.178;2023-12-29T11:35:56;98994.89;;;10.11;66.20
76337;BME280;65157;50.082;18.178;2023-12-29T11:38:52;98995.10;;;10.10;66.31
76337;BME280;65157;50.082;18.178;2023-12-29T11:44:06;98982.95;;;10.06;66.54
76337;BME280;65157;50.082;18.178;2023-12-29T11:46:39;98983.52;;;10.05;66.21
76337;BME280;65157;50.082;18.178;2023-12-29T11:49:06;98986.05;;;10.04;66.68
76337;BME280;65157;50.082;18.178;2023-12-29T11:54:02;98981.11;;;9.96;66.43
76337;BME280;65157;50.082;18.178;2023-12-29T11:56:39;98980.66;;;9.94;66.80
76337;BME280;65157;50.082;18.178;2023-12-29T11:59:22;98973.18;;;9.92;66.86
76337;BME280;65157;50.082;18.178;2023-12-29T12:01:53;98965.34;;;9.90;66.89
76337;BME280;65157;50.082;18.178;2023-12-29T12:07:06;98957.11;;;9.85;66.81
76337;BME280;65157;50.082;18.178;2023-12-29T12:09:34;98950.98;;;9.80;66.66
76337;BME280;65157;50.082;18.178;2023-12-29T12:12:02;98951.45;;;9.78;66.97
76337;BME280;65157;50.082;18.178;2023-12-29T12:14:50;98953.98;;;9.76;66.68
76337;BME280;65157;50.082;18.178;2023-12-29T12:17:30;98964.84;;;9.74;66.83
76337;BME280;65157;50.082;18.178;2023-12-29T12:20:08;98960.35;;;9.71;67.00
76337;BME280;65157;50.082;18.178;2023-12-29T12:22:36;98956.92;;;9.69;67.19
76337;BME280;65157;50.082;18.178;2023-12-29T12:25:04;98959.13;;;9.66;66.99
76337;BME280;65157;50.082;18.178;2023-12-29T12:27:31;98962.10;;;9.67;67.34
76337;BME280;65157;50.082;18.178;2023-12-29T12:29:58;98963.77;;;9.65;67.18
76337;BME280;65157;50.082;18.178;2023-12-29T12:32:26;98968.55;;;9.65;67.14
76337;BME280;65157;50.082;18.178;2023-12-29T12:34:55;98971.34;;;9.65;67.27
76337;BME280;65157;50.082;18.178;2023-12-29T12:37:30;98973.97;;;9.66;67.09
76337;BME280;65157;50.082;18.178;2023-12-29T12:39:57;98972.55;;;9.66;67.15
76337;BME280;65157;50.082;18.178;2023-12-29T12:42:24;98971.37;;;9.65;67.18
76337;BME280;65157;50.082;18.178;2023-12-29T12:44:56;98969.11;;;9.64;67.23
76337;BME280;65157;50.082;18.178;2023-12-29T12:47:32;98965.30;;;9.62;67.24
76337;BME280;65157;50.082;18.178;2023-12-29T12:50:01;98960.08;;;9.61;67.32
76337;BME280;65157;50.082;18.178;2023-12-29T12:52:32;98957.67;;;9.60;67.39
76337;BME280;65157;50.082;18.178;2023-12-29T12:55:00;98947.91;;;9.61;67.36
76337;BME280;65157;50.082;18.178;2023-12-29T12:57:28;98935.27;;;9.60;67.35
76337;BME280;65157;50.082;18.178;2023-12-29T12:59:56;98940.23;;;9.63;67.55
76337;BME280;65157;50.082;18.178;2023-12-29T13:02:24;98941.88;;;9.66;67.62
76337;BME280;65157;50.082;18.178;2023-12-29T13:04:51;98934.93;;;9.68;67.75
76337;BME280;65157;50.082;18.178;2023-12-29T13:07:21;98928.30;;;9.71;67.43
76337;BME280;65157;50.082;18.178;2023-12-29T13:09:50;98926.51;;;9.72;67.49
76337;BME280;65157;50.082;18.178;2023-12-29T13:12:18;98926.45;;;9.73;67.59
76337;BME280;65157;50.082;18.178;2023-12-29T13:14:44;98927.14;;;9.69;67.52
76337;BME280;65157;50.082;18.178;2023-12-29T13:17:13;98930.86;;;9.64;67.34
76337;BME280;65157;50.082;18.178;2023-12-29T13:19:40;98936.03;;;9.63;67.55
76337;BME280;65157;50.082;18.178;2023-12-29T13:22:08;98939.67;;;9.60;67.59